sensor_id;sensor_type;location;lat;lon;timestamp;P1;durP1;ratioP1;P2;durP2;ratioP2
82288;SDS011;71889;39.264;-120.910;2024-03-08T00:00:31;4.88;;;2.92;;
82288;SDS011;71889;39.264;-120.910;2024-03-08T00:03:16;2.60;;;1.30;;
82288;SDS011;71889;39.264;-120.910;2024-03-08T00:06:02;5.15;;;1.90;;
82288;SDS011;71889;39.264;-120.910;2024-03-08T00:08:48;3.17;;;2.00;;
82288;SDS011;71889;39.264;-120.910;2024-03-08T00:11:35;3.10;;;2.00;;
82288;SDS011;71889;39.264;-120.910;2024-03-08T00:14:20;3.10;;;2.20;;
82288;SDS011;71889;39.264;-120.910;2024-03-08T00:17:06;3.08;;;1.67;;
82288;SDS011;71889;39.264;-120.910;2024-03-08T00:19:51;4.78;;;2.50;;
82288;SDS011;71889;39.264;-120.910;2024-03-08T00:22:37;7.05;;;3.50;;
82288;SDS011;71889;39.264;-120.910;2024-03-08T00:25:23;13.68;;;4.38;;
82288;SDS011;71889;39.264;-120.910;2024-03-08T00:28:08;4.80;;;2.35;;
82288;SDS011;71889;39.264;-120.910;2024-03-08T00:30:57;6.28;;;3.33;;
82288;SDS011;71889;39.264;-120.910;2024-03-08T00:33:43;9.45;;;4.82;;
82288;SDS011;71889;39.264;-120.910;2024-03-08T00:36:28;15.43;;;8.30;;
82288;SDS011;71889;39.264;-120.910;2024-03-08T00:39:14;7.60;;;3.90;;
82288;SDS011;71889;39.264;-120.910;2024-03-08T00:42:00;6.93;;;4.28;;
82288;SDS011;71889;39.264;-120.910;2024-03-08T00:44:45;5.80;;;3.40;;
82288;SDS011;71889;39.264;-120.910;2024-03-08T00:47:30;9.20;;;3.95;;
82288;SDS011;71889;39.264;-120.910;2024-03-08T00:50:16;6.22;;;2.83;;
82288;SDS011;71889;39.264;-120.910;2024-03-08T00:53:02;5.88;;;2.55;;
82288;SDS011;71889;39.264;-120.910;2024-03-08T00:55:48;13.43;;;6.57;;
82288;SDS011;71889;39.264;-120.910;2024-03-08T00:58:33;9.45;;;5.22;;
82288;SDS011;71889;39.264;-120.910;2024-03-08T01:01:19;4.15;;;2.00;;
82288;SDS011;71889;39.264;-120.910;2024-03-08T01:04:04;4.35;;;2.53;;
82288;SDS011;71889;39.264;-120.910;2024-03-08T01:06:49;3.05;;;1.55;;
82288;SDS011;71889;39.264;-120.910;2024-03-08T01:09:35;2.35;;;1.58;;
82288;SDS011;71889;39.264;-120.910;2024-03-08T01:12:20;15.77;;;9.13;;
82288;SDS011;71889;39.264;-120.910;2024-03-08T01:15:06;8.32;;;3.58;;
82288;SDS011;71889;39.264;-120.910;2024-03-08T01:17:51;2.55;;;1.45;;
82288;SDS011;71889;39.264;-120.910;2024-03-08T01:20:36;5.32;;;2.90;;
82288;SDS011;71889;39.264;-120.910;2024-03-08T01:23:21;5.20;;;3.10;;
82288;SDS011;71889;39.264;-120.910;2024-03-08T01:26:07;2.45;;;1.17;;
82288;SDS011;71889;39.264;-120.910;2024-03-08T01:28:52;1.75;;;1.02;;
82288;SDS011;71889;39.264;-120.910;2024-03-08T01:31:37;2.30;;;1.40;;
82288;SDS011;71889;39.264;-120.910;2024-03-08T01:34:23;3.15;;;1.40;;
82288;SDS011;71889;39.264;-120.910;2024-03-08T01:37:09;3.90;;;2.38;;
82288;SDS011;71889;39.264;-120.910;2024-03-08T01:39:54;4.43;;;2.17;;
82288;SDS011;71889;39.264;-120.910;2024-03-08T01:42:40;3.83;;;1.70;;
82288;SDS011;71889;39.264;-120.910;2024-03-08T01:45:25;3.45;;;1.85;;
82288;SDS011;71889;39.264;-120.910;2024-03-08T01:48:10;2.70;;;1.50;;
82288;SDS011;71889;39.264;-120.910;2024-03-08T01:50:56;4.72;;;2.13;;
82288;SDS011;71889;39.264;-120.910;2024-03-08T01:53:42;3.05;;;1.48;;
82288;SDS011;71889;39.264;-120.910;2024-03-08T01:56:30;1.42;;;0.65;;
82288;SDS011;71889;39.264;-120.910;2024-03-08T01:59:16;1.23;;;0.43;;
82288;SDS011;71889;39.264;-120.910;2024-03-08T02:02:01;1.00;;;0.57;;
82288;SDS011;71889;39.264;-120.910;2024-03-08T02:04:50;0.47;;;0.32;;
82288;SDS011;71889;39.264;-120.910;2024-03-08T02:07:36;1.50;;;0.70;;
82288;SDS011;71889;39.264;-120.910;2024-03-08T02:10:22;2.78;;;0.75;;
82288;SDS011;71889;39.264;-120.910;2024-03-08T02:13:07;2.83;;;1.02;;
82288;SDS011;71889;39.264;-120.910;2024-03-08T02:15:53;3.95;;;1.58;;
82288;SDS011;71889;39.264;-120.910;2024-03-08T02:18:39;6.60;;;2.45;;
82288;SDS011;71889;39.264;-120.910;2024-03-08T02:21:24;4.90;;;1.75;;
82288;SDS011;71889;39.264;-120.910;2024-03-08T02:24:09;6.38;;;2.28;;
82288;SDS011;71889;39.264;-120.910;2024-03-08T02:26:55;6.13;;;2.30;;
82288;SDS011;71889;39.264;-120.910;2024-03-08T02:29:40;11.30;;;3.60;;
82288;SDS011;71889;39.264;-120.910;2024-03-08T02:32:28;9.15;;;2.90;;
82288;SDS011;71889;39.264;-120.910;2024-03-08T02:35:15;9.88;;;4.68;;
82288;SDS011;71889;39.264;-120.910;2024-03-08T02:38:00;17.58;;;8.68;;
82288;SDS011;71889;39.264;-120.910;2024-03-08T02:40:46;18.60;;;8.38;;
82288;SDS011;71889;39.264;-120.910;2024-03-08T02:43:31;15.93;;;7.75;;
82288;SDS011;71889;39.264;-120.910;2024-03-08T02:46:18;17.33;;;8.13;;
82288;SDS011;71889;39.264;-120.910;2024-03-08T02:49:04;15.68;;;8.13;;
82288;SDS011;71889;39.264;-120.910;2024-03-08T02:51:54;18.33;;;7.85;;
82288;SDS011;71889;39.264;-120.910;2024-03-08T02:54:41;14.05;;;6.93;;
82288;SDS011;71889;39.264;-120.910;2024-03-08T02:57:27;7.53;;;4.40;;
82288;SDS011;71889;39.264;-120.910;2024-03-08T03:00:12;13.63;;;6.95;;
82288;SDS011;71889;39.264;-120.910;2024-03-08T03:02:59;13.93;;;7.28;;
82288;SDS011;71889;39.264;-120.910;2024-03-08T03:05:47;13.75;;;6.85;;
82288;SDS011;71889;39.264;-120.910;2024-03-08T03:08:33;13.73;;;6.57;;
82288;SDS011;71889;39.264;-120.910;2024-03-08T03:11:18;15.05;;;6.72;;
82288;SDS011;71889;39.264;-120.910;2024-03-08T03:14:04;11.82;;;5.38;;
82288;SDS011;71889;39.264;-120.910;2024-03-08T03:16:51;9.73;;;4.35;;
82288;SDS011;71889;39.264;-120.910;2024-03-08T03:19:36;15.98;;;6.78;;
82288;SDS011;71889;39.264;-120.910;2024-03-08T03:22:21;13.27;;;6.05;;
82288;SDS011;71889;39.264;-120.910;2024-03-08T03:25:08;13.30;;;5.45;;
82288;SDS011;71889;39.264;-120.910;2024-03-08T03:27:53;11.13;;;3.75;;
82288;SDS011;71889;39.264;-120.910;2024-03-08T03:30:41;9.85;;;4.07;;
82288;SDS011;71889;39.264;-120.910;2024-03-08T03:33:27;10.30;;;4.75;;
82288;SDS011;71889;39.264;-120.910;2024-03-08T03:36:13;10.73;;;5.32;;
82288;SDS011;71889;39.264;-120.910;2024-03-08T03:38:58;8.95;;;3.70;;
82288;SDS011;71889;39.264;-120.910;2024-03-08T03:42:04;6.45;;;2.95;;
82288;SDS011;71889;39.264;-120.910;2024-03-08T03:44:49;8.48;;;4.13;;
82288;SDS011;71889;39.264;-120.910;2024-03-08T03:47:34;6.40;;;3.47;;
82288;SDS011;71889;39.264;-120.910;2024-03-08T03:50:20;6.65;;;3.60;;
82288;SDS011;71889;39.264;-120.910;2024-03-08T03:53:06;6.85;;;4.18;;
82288;SDS011;71889;39.264;-120.910;2024-03-08T03:55:51;10.25;;;5.80;;
82288;SDS011;71889;39.264;-120.910;2024-03-08T03:58:37;9.52;;;3.70;;
82288;SDS011;71889;39.264;-120.910;2024-03-08T04:01:23;6.43;;;3.70;;
82288;SDS011;71889;39.264;-120.910;2024-03-08T04:04:08;3.88;;;2.90;;
82288;SDS011;71889;39.264;-120.910;2024-03-08T04:06:54;5.03;;;2.78;;
82288;SDS011;71889;39.264;-120.910;2024-03-08T04:09:39;5.75;;;3.65;;
82288;SDS011;71889;39.264;-120.910;2024-03-08T04:12:24;5.90;;;3.65;;
82288;SDS011;71889;39.264;-120.910;2024-03-08T04:15:10;11.38;;;5.93;;
82288;SDS011;71889;39.264;-120.910;2024-03-08T04:17:55;16.50;;;9.20;;
82288;SDS011;71889;39.264;-120.910;2024-03-08T04:20:41;14.18;;;8.13;;
82288;SDS011;71889;39.264;-120.910;2024-03-08T04:23:26;12.50;;;7.50;;
82288;SDS011;71889;39.264;-120.910;2024-03-08T04:26:12;9.77;;;4.78;;
82288;SDS011;71889;39.264;-120.910;2024-03-08T04:28:58;6.50;;;3.60;;
82288;SDS011;71889;39.264;-120.910;2024-03-08T04:31:43;9.45;;;3.78;;
82288;SDS011;71889;39.264;-120.910;2024-03-08T04:34:28;8.05;;;4.00;;
82288;SDS011;71889;39.264;-120.910;2024-03-08T04:37:14;6.57;;;3.88;;
82288;SDS011;71889;39.264;-120.910;2024-03-08T04:40:02;4.82;;;2.67;;
82288;SDS011;71889;39.264;-120.910;2024-03-08T04:42:47;2.97;;;1.80;;
82288;SDS011;71889;39.264;-120.910;2024-03-08T04:45:34;2.78;;;1.52;;
82288;SDS011;71889;39.264;-120.910;2024-03-08T04:48:20;2.22;;;0.90;;
82288;SDS011;71889;39.264;-120.910;2024-03-08T04:51:05;2.67;;;1.40;;
82288;SDS011;71889;39.264;-120.910;2024-03-08T04:53:51;3.05;;;2.03;;
82288;SDS011;71889;39.264;-120.910;2024-03-08T04:56:36;4.57;;;2.85;;
82288;SDS011;71889;39.264;-120.910;2024-03-08T04:59:21;6.38;;;2.95;;
82288;SDS011;71889;39.264;-120.910;2024-03-08T05:02:07;7.85;;;3.80;;
82288;SDS011;71889;39.264;-120.910;2024-03-08T05:04:53;12.50;;;4.93;;
82288;SDS011;71889;39.264;-120.910;2024-03-08T05:07:38;11.18;;;4.75;;
82288;SDS011;71889;39.264;-120.910;2024-03-08T05:10:24;5.55;;;2.90;;
82288;SDS011;71889;39.264;-120.910;2024-03-08T05:13:09;11.63;;;4.72;;
82288;SDS011;71889;39.264;-120.910;2024-03-08T05:15:57;19.35;;;6.43;;
82288;SDS011;71889;39.264;-120.910;2024-03-08T05:18:45;20.67;;;6.85;;
82288;SDS011;71889;39.264;-120.910;2024-03-08T05:21:30;9.88;;;3.72;;
82288;SDS011;71889;39.264;-120.910;2024-03-08T05:24:16;6.18;;;2.25;;
82288;SDS011;71889;39.264;-120.910;2024-03-08T05:27:02;6.80;;;2.95;;
82288;SDS011;71889;39.264;-120.910;2024-03-08T05:29:47;4.78;;;1.83;;
82288;SDS011;71889;39.264;-120.910;2024-03-08T05:32:32;14.48;;;5.93;;
82288;SDS011;71889;39.264;-120.910;2024-03-08T05:35:17;7.13;;;3.38;;
82288;SDS011;71889;39.264;-120.910;2024-03-08T05:38:03;10.45;;;3.85;;
82288;SDS011;71889;39.264;-120.910;2024-03-08T05:40:48;11.05;;;5.40;;
82288;SDS011;71889;39.264;-120.910;2024-03-08T05:43:35;17.20;;;7.63;;
82288;SDS011;71889;39.264;-120.910;2024-03-08T05:46:20;13.43;;;5.88;;
82288;SDS011;71889;39.264;-120.910;2024-03-08T05:49:06;11.32;;;4.78;;
82288;SDS011;71889;39.264;-120.910;2024-03-08T05:51:53;11.45;;;5.38;;
82288;SDS011;71889;39.264;-120.910;2024-03-08T05:54:39;11.43;;;4.00;;
82288;SDS011;71889;39.264;-120.910;2024-03-08T05:57:25;32.15;;;10.45;;
82288;SDS011;71889;39.264;-120.910;2024-03-08T06:00:10;49.28;;;14.32;;
82288;SDS011;71889;39.264;-120.910;2024-03-08T06:02:56;35.97;;;13.38;;
82288;SDS011;71889;39.264;-120.910;2024-03-08T06:05:42;47.58;;;14.05;;
82288;SDS011;71889;39.264;-120.910;2024-03-08T06:08:28;33.95;;;12.52;;
82288;SDS011;71889;39.264;-120.910;2024-03-08T06:11:15;44.88;;;14.98;;
82288;SDS011;71889;39.264;-120.910;2024-03-08T06:14:01;49.28;;;18.67;;
82288;SDS011;71889;39.264;-120.910;2024-03-08T06:16:47;38.50;;;15.07;;
82288;SDS011;71889;39.264;-120.910;2024-03-08T06:19:34;26.95;;;12.50;;
82288;SDS011;71889;39.264;-120.910;2024-03-08T06:22:20;11.13;;;4.40;;
82288;SDS011;71889;39.264;-120.910;2024-03-08T06:25:05;8.40;;;3.28;;
82288;SDS011;71889;39.264;-120.910;2024-03-08T06:27:50;18.45;;;6.28;;
82288;SDS011;71889;39.264;-120.910;2024-03-08T06:30:36;15.93;;;5.50;;
82288;SDS011;71889;39.264;-120.910;2024-03-08T06:33:22;13.10;;;4.90;;
82288;SDS011;71889;39.264;-120.910;2024-03-08T06:36:08;11.98;;;4.20;;
82288;SDS011;71889;39.264;-120.910;2024-03-08T06:38:55;10.68;;;3.65;;
82288;SDS011;71889;39.264;-120.910;2024-03-08T06:41:41;11.15;;;3.85;;
82288;SDS011;71889;39.264;-120.910;2024-03-08T06:44:28;14.30;;;4.35;;
82288;SDS011;71889;39.264;-120.910;2024-03-08T06:47:14;28.92;;;10.45;;
82288;SDS011;71889;39.264;-120.910;2024-03-08T06:50:02;22.08;;;6.47;;
82288;SDS011;71889;39.264;-120.910;2024-03-08T06:52:48;32.38;;;9.55;;
82288;SDS011;71889;39.264;-120.910;2024-03-08T06:55:37;37.75;;;11.70;;
82288;SDS011;71889;39.264;-120.910;2024-03-08T06:58:22;25.65;;;7.95;;
82288;SDS011;71889;39.264;-120.910;2024-03-08T07:01:08;9.30;;;3.50;;
82288;SDS011;71889;39.264;-120.910;2024-03-08T07:03:58;4.75;;;1.88;;
82288;SDS011;71889;39.264;-120.910;2024-03-08T07:06:43;14.52;;;4.07;;
82288;SDS011;71889;39.264;-120.910;2024-03-08T07:09:29;24.25;;;5.30;;
82288;SDS011;71889;39.264;-120.910;2024-03-08T07:12:14;9.98;;;3.28;;
82288;SDS011;71889;39.264;-120.910;2024-03-08T07:15:01;11.70;;;3.28;;
82288;SDS011;71889;39.264;-120.910;2024-03-08T07:17:47;15.50;;;4.53;;
82288;SDS011;71889;39.264;-120.910;2024-03-08T07:20:32;12.70;;;4.22;;
82288;SDS011;71889;39.264;-120.910;2024-03-08T07:23:18;24.80;;;7.40;;
82288;SDS011;71889;39.264;-120.910;2024-03-08T07:26:24;28.27;;;8.07;;
82288;SDS011;71889;39.264;-120.910;2024-03-08T07:29:09;22.63;;;8.30;;
82288;SDS011;71889;39.264;-120.910;2024-03-08T07:31:54;16.50;;;5.78;;
82288;SDS011;71889;39.264;-120.910;2024-03-08T07:34:40;16.02;;;5.45;;
82288;SDS011;71889;39.264;-120.910;2024-03-08T07:37:25;14.00;;;4.75;;
82288;SDS011;71889;39.264;-120.910;2024-03-08T07:40:11;4.28;;;1.48;;
82288;SDS011;71889;39.264;-120.910;2024-03-08T07:42:57;11.43;;;4.82;;
82288;SDS011;71889;39.264;-120.910;2024-03-08T07:45:42;8.73;;;3.10;;
82288;SDS011;71889;39.264;-120.910;2024-03-08T07:48:27;14.40;;;4.55;;
82288;SDS011;71889;39.264;-120.910;2024-03-08T07:51:17;35.70;;;12.25;;
82288;SDS011;71889;39.264;-120.910;2024-03-08T07:54:03;18.42;;;6.90;;
82288;SDS011;71889;39.264;-120.910;2024-03-08T07:56:48;32.78;;;11.15;;
82288;SDS011;71889;39.264;-120.910;2024-03-08T07:59:35;18.98;;;8.25;;
82288;SDS011;71889;39.264;-120.910;2024-03-08T08:02:20;19.55;;;7.88;;
82288;SDS011;71889;39.264;-120.910;2024-03-08T08:05:06;31.92;;;10.10;;
82288;SDS011;71889;39.264;-120.910;2024-03-08T08:07:54;35.50;;;12.15;;
82288;SDS011;71889;39.264;-120.910;2024-03-08T08:10:39;30.33;;;8.90;;
82288;SDS011;71889;39.264;-120.910;2024-03-08T08:13:26;34.47;;;11.52;;
82288;SDS011;71889;39.264;-120.910;2024-03-08T08:16:16;37.58;;;12.07;;
82288;SDS011;71889;39.264;-120.910;2024-03-08T08:19:02;30.88;;;11.45;;
82288;SDS011;71889;39.264;-120.910;2024-03-08T08:21:51;22.38;;;10.43;;
82288;SDS011;71889;39.264;-120.910;2024-03-08T08:24:37;26.80;;;10.63;;
82288;SDS011;71889;39.264;-120.910;2024-03-08T08:27:22;26.42;;;10.07;;
82288;SDS011;71889;39.264;-120.910;2024-03-08T08:30:10;12.65;;;5.88;;
82288;SDS011;71889;39.264;-120.910;2024-03-08T08:32:56;14.77;;;6.40;;
82288;SDS011;71889;39.264;-120.910;2024-03-08T08:35:44;11.45;;;6.15;;
82288;SDS011;71889;39.264;-120.910;2024-03-08T08:38:31;9.80;;;4.65;;
82288;SDS011;71889;39.264;-120.910;2024-03-08T08:41:17;10.93;;;5.25;;
82288;SDS011;71889;39.264;-120.910;2024-03-08T08:44:02;7.07;;;3.47;;
82288;SDS011;71889;39.264;-120.910;2024-03-08T08:46:47;7.18;;;3.65;;
82288;SDS011;71889;39.264;-120.910;2024-03-08T08:49:32;5.72;;;3.00;;
82288;SDS011;71889;39.264;-120.910;2024-03-08T08:52:19;5.80;;;3.17;;
82288;SDS011;71889;39.264;-120.910;2024-03-08T08:55:04;4.10;;;2.42;;
82288;SDS011;71889;39.264;-120.910;2024-03-08T08:57:50;3.95;;;1.95;;
82288;SDS011;71889;39.264;-120.910;2024-03-08T09:00:35;1.38;;;0.60;;
82288;SDS011;71889;39.264;-120.910;2024-03-08T09:03:20;3.88;;;1.52;;
82288;SDS011;71889;39.264;-120.910;2024-03-08T09:06:08;2.80;;;1.65;;
82288;SDS011;71889;39.264;-120.910;2024-03-08T09:08:56;2.17;;;1.20;;
82288;SDS011;71889;39.264;-120.910;2024-03-08T09:11:42;3.72;;;1.08;;
82288;SDS011;71889;39.264;-120.910;2024-03-08T09:14:27;4.75;;;3.40;;
82288;SDS011;71889;39.264;-120.910;2024-03-08T09:17:13;1.52;;;0.95;;
82288;SDS011;71889;39.264;-120.910;2024-03-08T09:20:01;5.75;;;2.92;;
82288;SDS011;71889;39.264;-120.910;2024-03-08T09:22:48;5.38;;;2.90;;
82288;SDS011;71889;39.264;-120.910;2024-03-08T09:25:34;5.60;;;2.70;;
82288;SDS011;71889;39.264;-120.910;2024-03-08T09:28:19;5.70;;;3.10;;
82288;SDS011;71889;39.264;-120.910;2024-03-08T09:31:04;5.15;;;3.22;;
82288;SDS011;71889;39.264;-120.910;2024-03-08T09:33:50;4.68;;;2.42;;
82288;SDS011;71889;39.264;-120.910;2024-03-08T09:36:36;7.28;;;3.30;;
82288;SDS011;71889;39.264;-120.910;2024-03-08T09:39:21;5.30;;;2.85;;
82288;SDS011;71889;39.264;-120.910;2024-03-08T09:42:07;4.57;;;2.22;;
82288;SDS011;71889;39.264;-120.910;2024-03-08T09:44:52;4.10;;;2.25;;
82288;SDS011;71889;39.264;-120.910;2024-03-08T09:47:41;1.92;;;0.85;;
82288;SDS011;71889;39.264;-120.910;2024-03-08T09:53:13;1.50;;;0.60;;
82288;SDS011;71889;39.264;-120.910;2024-03-08T09:55:58;1.92;;;0.70;;
82288;SDS011;71889;39.264;-120.910;2024-03-08T09:58:44;2.42;;;1.27;;
82288;SDS011;71889;39.264;-120.910;2024-03-08T10:01:58;3.55;;;2.03;;
82288;SDS011;71889;39.264;-120.910;2024-03-08T10:04:46;2.33;;;1.00;;
82288;SDS011;71889;39.264;-120.910;2024-03-08T10:07:31;1.45;;;0.73;;
82288;SDS011;71889;39.264;-120.910;2024-03-08T10:10:17;3.40;;;1.00;;
82288;SDS011;71889;39.264;-120.910;2024-03-08T10:13:11;1.48;;;0.70;;
82288;SDS011;71889;39.264;-120.910;2024-03-08T10:15:58;1.63;;;0.88;;
82288;SDS011;71889;39.264;-120.910;2024-03-08T10:18:44;0.82;;;0.50;;
82288;SDS011;71889;39.264;-120.910;2024-03-08T10:21:30;0.98;;;0.50;;
82288;SDS011;71889;39.264;-120.910;2024-03-08T10:24:17;2.67;;;0.88;;
82288;SDS011;71889;39.264;-120.910;2024-03-08T10:27:02;0.85;;;0.50;;
82288;SDS011;71889;39.264;-120.910;2024-03-08T10:29:48;1.33;;;0.43;;
82288;SDS011;71889;39.264;-120.910;2024-03-08T10:32:36;3.28;;;0.65;;
82288;SDS011;71889;39.264;-120.910;2024-03-08T10:35:21;1.65;;;0.60;;
82288;SDS011;71889;39.264;-120.910;2024-03-08T10:38:08;1.10;;;0.30;;
82288;SDS011;71889;39.264;-120.910;2024-03-08T10:40:59;0.77;;;0.50;;
82288;SDS011;71889;39.264;-120.910;2024-03-08T10:44:02;1.05;;;0.47;;
82288;SDS011;71889;39.264;-120.910;2024-03-08T10:49:39;4.00;;;0.90;;
82288;SDS011;71889;39.264;-120.910;2024-03-08T10:52:29;2.50;;;1.13;;
82288;SDS011;71889;39.264;-120.910;2024-03-08T10:55:15;15.48;;;6.22;;
82288;SDS011;71889;39.264;-120.910;2024-03-08T10:58:01;18.70;;;7.72;;
82288;SDS011;71889;39.264;-120.910;2024-03-08T11:00:48;21.75;;;9.77;;
82288;SDS011;71889;39.264;-120.910;2024-03-08T11:15:12;15.10;;;5.18;;
82288;SDS011;71889;39.264;-120.910;2024-03-08T11:17:58;9.70;;;3.53;;
82288;SDS011;71889;39.264;-120.910;2024-03-08T11:20:43;10.98;;;3.95;;
82288;SDS011;71889;39.264;-120.910;2024-03-08T11:23:29;13.18;;;4.93;;
82288;SDS011;71889;39.264;-120.910;2024-03-08T11:26:19;9.63;;;3.80;;
82288;SDS011;71889;39.264;-120.910;2024-03-08T11:32:09;12.73;;;4.40;;
82288;SDS011;71889;39.264;-120.910;2024-03-08T11:34:55;13.65;;;4.95;;
82288;SDS011;71889;39.264;-120.910;2024-03-08T11:37:40;10.10;;;4.18;;
82288;SDS011;71889;39.264;-120.910;2024-03-08T11:40:25;15.75;;;5.50;;
82288;SDS011;71889;39.264;-120.910;2024-03-08T11:43:11;6.53;;;2.60;;
82288;SDS011;71889;39.264;-120.910;2024-03-08T11:46:08;3.50;;;2.08;;
82288;SDS011;71889;39.264;-120.910;2024-03-08T11:48:54;5.05;;;1.73;;
82288;SDS011;71889;39.264;-120.910;2024-03-08T11:51:41;3.35;;;1.05;;
82288;SDS011;71889;39.264;-120.910;2024-03-08T11:54:28;0.93;;;0.40;;
82288;SDS011;71889;39.264;-120.910;2024-03-08T11:57:14;0.57;;;0.20;;
82288;SDS011;71889;39.264;-120.910;2024-03-08T11:59:59;1.58;;;0.38;;
82288;SDS011;71889;39.264;-120.910;2024-03-08T12:03:03;1.10;;;0.50;;
82288;SDS011;71889;39.264;-120.910;2024-03-08T12:05:54;2.40;;;0.70;;
82288;SDS011;71889;39.264;-120.910;2024-03-08T12:08:43;1.13;;;0.40;;
82288;SDS011;71889;39.264;-120.910;2024-03-08T12:11:30;0.38;;;0.10;;
82288;SDS011;71889;39.264;-120.910;2024-03-08T12:14:16;0.35;;;0.20;;
82288;SDS011;71889;39.264;-120.910;2024-03-08T12:17:02;0.68;;;0.50;;
82288;SDS011;71889;39.264;-120.910;2024-03-08T12:19:49;2.85;;;0.98;;
82288;SDS011;71889;39.264;-120.910;2024-03-08T12:25:26;2.13;;;0.75;;
82288;SDS011;71889;39.264;-120.910;2024-03-08T12:30:57;2.70;;;1.20;;
82288;SDS011;71889;39.264;-120.910;2024-03-08T12:33:51;2.10;;;1.05;;
82288;SDS011;71889;39.264;-120.910;2024-03-08T12:36:36;3.10;;;0.70;;
82288;SDS011;71889;39.264;-120.910;2024-03-08T12:39:22;3.70;;;0.60;;
82288;SDS011;71889;39.264;-120.910;2024-03-08T12:42:10;0.63;;;0.35;;
82288;SDS011;71889;39.264;-120.910;2024-03-08T12:44:56;0.68;;;0.30;;
82288;SDS011;71889;39.264;-120.910;2024-03-08T12:47:43;1.05;;;0.68;;
82288;SDS011;71889;39.264;-120.910;2024-03-08T12:50:29;1.85;;;1.08;;
82288;SDS011;71889;39.264;-120.910;2024-03-08T12:53:14;2.92;;;1.17;;
82288;SDS011;71889;39.264;-120.910;2024-03-08T12:56:00;2.78;;;1.42;;
82288;SDS011;71889;39.264;-120.910;2024-03-08T12:58:45;7.63;;;1.95;;
82288;SDS011;71889;39.264;-120.910;2024-03-08T13:01:31;9.52;;;2.15;;
82288;SDS011;71889;39.264;-120.910;2024-03-08T13:04:17;6.78;;;1.75;;
82288;SDS011;71889;39.264;-120.910;2024-03-08T13:07:03;8.25;;;1.92;;
82288;SDS011;71889;39.264;-120.910;2024-03-08T13:09:48;5.30;;;1.67;;
82288;SDS011;71889;39.264;-120.910;2024-03-08T13:12:33;11.50;;;3.90;;
82288;SDS011;71889;39.264;-120.910;2024-03-08T13:15:21;10.45;;;3.58;;
82288;SDS011;71889;39.264;-120.910;2024-03-08T13:18:07;14.40;;;3.60;;
82288;SDS011;71889;39.264;-120.910;2024-03-08T13:20:53;12.07;;;3.33;;
82288;SDS011;71889;39.264;-120.910;2024-03-08T13:23:39;14.27;;;3.83;;
82288;SDS011;71889;39.264;-120.910;2024-03-08T13:26:25;6.20;;;2.53;;
82288;SDS011;71889;39.264;-120.910;2024-03-08T13:29:16;5.05;;;1.85;;
82288;SDS011;71889;39.264;-120.910;2024-03-08T13:32:02;4.20;;;1.50;;
82288;SDS011;71889;39.264;-120.910;2024-03-08T13:34:50;3.92;;;1.58;;
82288;SDS011;71889;39.264;-120.910;2024-03-08T13:37:35;3.33;;;1.20;;
82288;SDS011;71889;39.264;-120.910;2024-03-08T13:40:21;2.25;;;1.00;;
82288;SDS011;71889;39.264;-120.910;2024-03-08T13:43:06;1.65;;;0.88;;
82288;SDS011;71889;39.264;-120.910;2024-03-08T13:45:52;6.68;;;1.90;;
82288;SDS011;71889;39.264;-120.910;2024-03-08T13:48:39;5.03;;;0.90;;
82288;SDS011;71889;39.264;-120.910;2024-03-08T13:51:25;1.27;;;0.40;;
82288;SDS011;71889;39.264;-120.910;2024-03-08T13:54:10;0.90;;;0.28;;
82288;SDS011;71889;39.264;-120.910;2024-03-08T13:56:55;2.40;;;0.70;;
82288;SDS011;71889;39.264;-120.910;2024-03-08T13:59:41;1.95;;;0.30;;
82288;SDS011;71889;39.264;-120.910;2024-03-08T14:02:26;0.77;;;0.25;;
82288;SDS011;71889;39.264;-120.910;2024-03-08T14:05:15;3.25;;;0.70;;
82288;SDS011;71889;39.264;-120.910;2024-03-08T14:08:03;1.13;;;0.40;;
82288;SDS011;71889;39.264;-120.910;2024-03-08T14:10:48;0.30;;;0.10;;
82288;SDS011;71889;39.264;-120.910;2024-03-08T14:13:35;0.70;;;0.30;;
82288;SDS011;71889;39.264;-120.910;2024-03-08T14:16:20;0.65;;;0.38;;
82288;SDS011;71889;39.264;-120.910;2024-03-08T14:19:06;16.52;;;5.13;;
82288;SDS011;71889;39.264;-120.910;2024-03-08T14:21:53;30.00;;;8.35;;
82288;SDS011;71889;39.264;-120.910;2024-03-08T14:24:39;20.42;;;7.25;;
82288;SDS011;71889;39.264;-120.910;2024-03-08T14:27:24;11.52;;;4.43;;
82288;SDS011;71889;39.264;-120.910;2024-03-08T14:30:11;8.10;;;3.05;;
82288;SDS011;71889;39.264;-120.910;2024-03-08T14:32:57;10.40;;;3.47;;
82288;SDS011;71889;39.264;-120.910;2024-03-08T14:35:43;8.25;;;3.30;;
82288;SDS011;71889;39.264;-120.910;2024-03-08T14:38:29;8.57;;;2.45;;
82288;SDS011;71889;39.264;-120.910;2024-03-08T14:41:15;9.77;;;2.53;;
82288;SDS011;71889;39.264;-120.910;2024-03-08T14:44:00;32.88;;;10.18;;
82288;SDS011;71889;39.264;-120.910;2024-03-08T14:46:45;35.92;;;13.65;;
82288;SDS011;71889;39.264;-120.910;2024-03-08T14:49:32;15.45;;;5.25;;
82288;SDS011;71889;39.264;-120.910;2024-03-08T14:52:18;5.38;;;1.42;;
82288;SDS011;71889;39.264;-120.910;2024-03-08T14:55:12;2.00;;;0.77;;
82288;SDS011;71889;39.264;-120.910;2024-03-08T14:57:58;4.53;;;1.58;;
82288;SDS011;71889;39.264;-120.910;2024-03-08T15:00:44;1.85;;;0.63;;
82288;SDS011;71889;39.264;-120.910;2024-03-08T15:03:29;3.28;;;1.05;;
82288;SDS011;71889;39.264;-120.910;2024-03-08T15:06:16;2.85;;;1.02;;
82288;SDS011;71889;39.264;-120.910;2024-03-08T15:09:04;15.23;;;5.95;;
82288;SDS011;71889;39.264;-120.910;2024-03-08T15:11:55;14.50;;;4.75;;
82288;SDS011;71889;39.264;-120.910;2024-03-08T15:14:41;13.68;;;4.68;;
82288;SDS011;71889;39.264;-120.910;2024-03-08T15:17:28;7.10;;;2.53;;
82288;SDS011;71889;39.264;-120.910;2024-03-08T15:20:13;8.63;;;2.88;;
82288;SDS011;71889;39.264;-120.910;2024-03-08T15:23:07;18.55;;;8.05;;
82288;SDS011;71889;39.264;-120.910;2024-03-08T15:25:53;42.38;;;16.52;;
82288;SDS011;71889;39.264;-120.910;2024-03-08T15:28:38;17.15;;;6.13;;
82288;SDS011;71889;39.264;-120.910;2024-03-08T15:31:24;8.30;;;3.97;;
82288;SDS011;71889;39.264;-120.910;2024-03-08T15:34:10;12.25;;;4.72;;
82288;SDS011;71889;39.264;-120.910;2024-03-08T15:36:57;9.60;;;4.47;;
82288;SDS011;71889;39.264;-120.910;2024-03-08T15:39:45;8.95;;;4.13;;
82288;SDS011;71889;39.264;-120.910;2024-03-08T15:42:31;7.63;;;3.05;;
82288;SDS011;71889;39.264;-120.910;2024-03-08T15:45:18;3.83;;;2.10;;
82288;SDS011;71889;39.264;-120.910;2024-03-08T15:48:04;6.45;;;2.47;;
82288;SDS011;71889;39.264;-120.910;2024-03-08T15:50:49;4.43;;;2.10;;
82288;SDS011;71889;39.264;-120.910;2024-03-08T15:53:35;3.38;;;1.70;;
82288;SDS011;71889;39.264;-120.910;2024-03-08T15:56:20;5.50;;;2.33;;
82288;SDS011;71889;39.264;-120.910;2024-03-08T15:59:06;5.13;;;2.63;;
82288;SDS011;71889;39.264;-120.910;2024-03-08T16:01:52;5.53;;;2.88;;
82288;SDS011;71889;39.264;-120.910;2024-03-08T16:04:37;3.83;;;2.40;;
82288;SDS011;71889;39.264;-120.910;2024-03-08T16:07:22;2.10;;;1.35;;
82288;SDS011;71889;39.264;-120.910;2024-03-08T16:10:08;2.67;;;1.05;;
82288;SDS011;71889;39.264;-120.910;2024-03-08T16:12:54;1.85;;;0.98;;
82288;SDS011;71889;39.264;-120.910;2024-03-08T16:15:40;2.25;;;1.27;;
82288;SDS011;71889;39.264;-120.910;2024-03-08T16:18:25;3.25;;;1.10;;